sensor_id;sensor_type;location;lat;lon;timestamp;P1;durP1;ratioP1;P2;durP2;ratioP2
5833;SDS011;2943;48.012;10.968;2022-10-18T00:00:01;14.20;;;8.40;;
5833;SDS011;2943;48.012;10.968;2022-10-18T00:02:30;10.27;;;7.30;;
5833;SDS011;2943;48.012;10.968;2022-10-18T00:04:56;7.00;;;6.32;;
5833;SDS011;2943;48.012;10.968;2022-10-18T00:07:23;8.63;;;6.30;;
5833;SDS011;2943;48.012;10.968;2022-10-18T00:09:50;9.63;;;7.23;;
5833;SDS011;2943;48.012;10.968;2022-10-18T00:12:18;8.77;;;6.63;;
5833;SDS011;2943;48.012;10.968;2022-10-18T00:14:46;12.70;;;7.13;;
5833;SDS011;2943;48.012;10.968;2022-10-18T00:17:14;12.97;;;8.03;;
5833;SDS011;2943;48.012;10.968;2022-10-18T00:19:40;10.70;;;7.57;;
5833;SDS011;2943;48.012;10.968;2022-10-18T00:22:07;9.40;;;7.47;;
5833;SDS011;2943;48.012;10.968;2022-10-18T00:24:34;6.93;;;5.90;;
5833;SDS011;2943;48.012;10.968;2022-10-18T00:27:01;6.63;;;5.93;;
5833;SDS011;2943;48.012;10.968;2022-10-18T00:29:29;7.97;;;6.50;;
5833;SDS011;2943;48.012;10.968;2022-10-18T00:31:56;9.03;;;6.80;;
5833;SDS011;2943;48.012;10.968;2022-10-18T00:34:23;9.17;;;6.90;;
5833;SDS011;2943;48.012;10.968;2022-10-18T00:36:49;7.30;;;6.30;;
5833;SDS011;2943;48.012;10.968;2022-10-18T00:39:17;8.70;;;6.40;;
5833;SDS011;2943;48.012;10.968;2022-10-18T00:41:45;8.57;;;6.30;;
5833;SDS011;2943;48.012;10.968;2022-10-18T00:47:23;8.70;;;6.50;;
5833;SDS011;2943;48.012;10.968;2022-10-18T00:49:50;12.70;;;7.23;;
5833;SDS011;2943;48.012;10.968;2022-10-18T00:52:21;6.53;;;5.80;;
5833;SDS011;2943;48.012;10.968;2022-10-18T00:54:53;7.07;;;6.33;;
5833;SDS011;2943;48.012;10.968;2022-10-18T00:57:22;8.23;;;6.63;;
5833;SDS011;2943;48.012;10.968;2022-10-18T00:59:49;9.77;;;6.10;;
5833;SDS011;2943;48.012;10.968;2022-10-18T01:02:17;7.73;;;6.13;;
5833;SDS011;2943;48.012;10.968;2022-10-18T01:04:45;9.17;;;6.30;;
5833;SDS011;2943;48.012;10.968;2022-10-18T01:07:16;7.23;;;6.20;;
5833;SDS011;2943;48.012;10.968;2022-10-18T01:09:52;11.20;;;6.30;;
5833;SDS011;2943;48.012;10.968;2022-10-18T01:12:26;12.20;;;6.37;;
5833;SDS011;2943;48.012;10.968;2022-10-18T01:15:02;10.13;;;7.60;;
5833;SDS011;2943;48.012;10.968;2022-10-18T01:17:37;6.77;;;5.97;;
5833;SDS011;2943;48.012;10.968;2022-10-18T01:20:28;8.70;;;6.30;;
5833;SDS011;2943;48.012;10.968;2022-10-18T01:23:26;6.80;;;5.50;;
5833;SDS011;2943;48.012;10.968;2022-10-18T01:26:15;8.40;;;6.43;;
5833;SDS011;2943;48.012;10.968;2022-10-18T01:28:56;10.10;;;6.43;;
5833;SDS011;2943;48.012;10.968;2022-10-18T01:31:35;7.63;;;6.00;;
5833;SDS011;2943;48.012;10.968;2022-10-18T01:34:06;7.87;;;7.00;;
5833;SDS011;2943;48.012;10.968;2022-10-18T01:36:36;6.87;;;6.03;;
5833;SDS011;2943;48.012;10.968;2022-10-18T01:39:05;6.30;;;5.00;;
5833;SDS011;2943;48.012;10.968;2022-10-18T01:41:37;6.37;;;5.53;;
5833;SDS011;2943;48.012;10.968;2022-10-18T01:44:06;6.30;;;5.70;;
5833;SDS011;2943;48.012;10.968;2022-10-18T01:46:38;6.80;;;5.50;;
5833;SDS011;2943;48.012;10.968;2022-10-18T01:49:07;11.23;;;5.97;;
5833;SDS011;2943;48.012;10.968;2022-10-18T01:51:34;6.90;;;5.87;;
5833;SDS011;2943;48.012;10.968;2022-10-18T01:54:01;8.27;;;5.20;;
5833;SDS011;2943;48.012;10.968;2022-10-18T01:56:31;7.10;;;5.80;;
5833;SDS011;2943;48.012;10.968;2022-10-18T01:59:13;6.87;;;5.63;;
5833;SDS011;2943;48.012;10.968;2022-10-18T02:01:52;10.93;;;6.07;;
5833;SDS011;2943;48.012;10.968;2022-10-18T02:04:28;10.90;;;5.70;;
5833;SDS011;2943;48.012;10.968;2022-10-18T02:07:00;9.77;;;5.63;;
5833;SDS011;2943;48.012;10.968;2022-10-18T02:09:33;18.23;;;6.47;;
5833;SDS011;2943;48.012;10.968;2022-10-18T02:12:04;5.97;;;5.40;;
5833;SDS011;2943;48.012;10.968;2022-10-18T02:14:35;11.27;;;5.70;;
5833;SDS011;2943;48.012;10.968;2022-10-18T02:17:05;10.00;;;5.63;;
5833;SDS011;2943;48.012;10.968;2022-10-18T02:19:36;6.50;;;5.90;;
5833;SDS011;2943;48.012;10.968;2022-10-18T02:22:05;6.43;;;5.63;;
5833;SDS011;2943;48.012;10.968;2022-10-18T02:24:34;14.60;;;6.33;;
5833;SDS011;2943;48.012;10.968;2022-10-18T02:27:04;9.83;;;6.60;;
5833;SDS011;2943;48.012;10.968;2022-10-18T02:29:31;8.50;;;6.00;;
5833;SDS011;2943;48.012;10.968;2022-10-18T02:32:01;7.87;;;5.57;;
5833;SDS011;2943;48.012;10.968;2022-10-18T02:34:34;7.73;;;5.83;;
5833;SDS011;2943;48.012;10.968;2022-10-18T02:37:04;7.80;;;5.70;;
5833;SDS011;2943;48.012;10.968;2022-10-18T02:39:33;8.80;;;5.80;;
5833;SDS011;2943;48.012;10.968;2022-10-18T02:42:02;7.57;;;5.30;;
5833;SDS011;2943;48.012;10.968;2022-10-18T02:44:32;9.03;;;5.60;;
5833;SDS011;2943;48.012;10.968;2022-10-18T02:46:58;11.90;;;5.50;;
5833;SDS011;2943;48.012;10.968;2022-10-18T02:49:27;8.40;;;5.63;;
5833;SDS011;2943;48.012;10.968;2022-10-18T02:51:54;7.20;;;6.23;;
5833;SDS011;2943;48.012;10.968;2022-10-18T02:54:21;6.50;;;5.90;;
5833;SDS011;2943;48.012;10.968;2022-10-18T02:56:48;12.87;;;6.50;;
5833;SDS011;2943;48.012;10.968;2022-10-18T02:59:15;6.50;;;5.47;;
5833;SDS011;2943;48.012;10.968;2022-10-18T03:01:42;12.50;;;5.50;;
5833;SDS011;2943;48.012;10.968;2022-10-18T03:04:09;7.17;;;5.80;;
5833;SDS011;2943;48.012;10.968;2022-10-18T03:06:37;6.37;;;5.77;;
5833;SDS011;2943;48.012;10.968;2022-10-18T03:09:04;6.43;;;5.53;;
5833;SDS011;2943;48.012;10.968;2022-10-18T03:11:32;6.27;;;5.67;;
5833;SDS011;2943;48.012;10.968;2022-10-18T03:13:59;7.10;;;6.40;;
5833;SDS011;2943;48.012;10.968;2022-10-18T03:16:25;7.70;;;5.73;;
5833;SDS011;2943;48.012;10.968;2022-10-18T03:18:52;5.93;;;5.13;;
5833;SDS011;2943;48.012;10.968;2022-10-18T03:21:19;8.17;;;6.10;;
5833;SDS011;2943;48.012;10.968;2022-10-18T03:23:47;11.97;;;6.30;;
5833;SDS011;2943;48.012;10.968;2022-10-18T03:26:14;16.23;;;5.60;;
5833;SDS011;2943;48.012;10.968;2022-10-18T03:28:41;6.50;;;5.20;;
5833;SDS011;2943;48.012;10.968;2022-10-18T03:31:08;7.03;;;5.13;;
5833;SDS011;2943;48.012;10.968;2022-10-18T03:33:35;11.27;;;5.30;;
5833;SDS011;2943;48.012;10.968;2022-10-18T03:36:02;5.03;;;4.53;;
5833;SDS011;2943;48.012;10.968;2022-10-18T03:38:29;7.90;;;5.07;;
5833;SDS011;2943;48.012;10.968;2022-10-18T03:40:57;5.13;;;4.63;;
5833;SDS011;2943;48.012;10.968;2022-10-18T03:43:24;8.07;;;5.60;;
5833;SDS011;2943;48.012;10.968;2022-10-18T03:45:51;8.37;;;5.10;;
5833;SDS011;2943;48.012;10.968;2022-10-18T03:48:18;7.43;;;4.63;;
5833;SDS011;2943;48.012;10.968;2022-10-18T03:50:45;6.93;;;4.30;;
5833;SDS011;2943;48.012;10.968;2022-10-18T03:53:12;6.00;;;5.07;;
5833;SDS011;2943;48.012;10.968;2022-10-18T03:55:39;5.67;;;4.87;;
5833;SDS011;2943;48.012;10.968;2022-10-18T03:58:07;6.10;;;5.50;;
5833;SDS011;2943;48.012;10.968;2022-10-18T04:00:34;6.90;;;4.93;;
5833;SDS011;2943;48.012;10.968;2022-10-18T04:03:01;5.87;;;4.70;;
5833;SDS011;2943;48.012;10.968;2022-10-18T04:05:28;7.00;;;5.33;;
5833;SDS011;2943;48.012;10.968;2022-10-18T04:07:55;7.20;;;5.50;;
5833;SDS011;2943;48.012;10.968;2022-10-18T04:10:23;9.90;;;5.17;;
5833;SDS011;2943;48.012;10.968;2022-10-18T04:12:50;14.93;;;5.67;;
5833;SDS011;2943;48.012;10.968;2022-10-18T04:15:18;7.10;;;6.40;;
5833;SDS011;2943;48.012;10.968;2022-10-18T04:17:46;6.63;;;5.87;;
5833;SDS011;2943;48.012;10.968;2022-10-18T04:20:12;6.63;;;5.23;;
5833;SDS011;2943;48.012;10.968;2022-10-18T04:22:39;8.90;;;5.73;;
5833;SDS011;2943;48.012;10.968;2022-10-18T04:25:06;5.87;;;5.30;;
5833;SDS011;2943;48.012;10.968;2022-10-18T04:27:33;9.50;;;5.37;;
5833;SDS011;2943;48.012;10.968;2022-10-18T04:30:00;7.70;;;5.57;;
5833;SDS011;2943;48.012;10.968;2022-10-18T04:32:29;5.90;;;5.30;;
5833;SDS011;2943;48.012;10.968;2022-10-18T04:34:55;10.70;;;5.10;;
5833;SDS011;2943;48.012;10.968;2022-10-18T04:37:22;13.13;;;6.03;;
5833;SDS011;2943;48.012;10.968;2022-10-18T04:39:49;9.13;;;6.00;;
5833;SDS011;2943;48.012;10.968;2022-10-18T04:42:16;10.00;;;5.90;;
5833;SDS011;2943;48.012;10.968;2022-10-18T04:44:43;13.97;;;5.43;;
5833;SDS011;2943;48.012;10.968;2022-10-18T04:47:10;7.87;;;5.50;;
5833;SDS011;2943;48.012;10.968;2022-10-18T04:49:38;8.10;;;4.87;;
5833;SDS011;2943;48.012;10.968;2022-10-18T04:52:05;5.53;;;5.00;;
5833;SDS011;2943;48.012;10.968;2022-10-18T04:54:32;9.70;;;5.27;;
5833;SDS011;2943;48.012;10.968;2022-10-18T04:56:58;9.90;;;5.50;;
5833;SDS011;2943;48.012;10.968;2022-10-18T04:59:25;6.10;;;4.90;;
5833;SDS011;2943;48.012;10.968;2022-10-18T05:01:52;6.63;;;5.53;;
5833;SDS011;2943;48.012;10.968;2022-10-18T05:04:19;10.17;;;6.20;;
5833;SDS011;2943;48.012;10.968;2022-10-18T05:06:47;7.50;;;5.90;;
5833;SDS011;2943;48.012;10.968;2022-10-18T05:09:14;11.50;;;6.90;;
5833;SDS011;2943;48.012;10.968;2022-10-18T05:11:41;8.37;;;6.47;;
5833;SDS011;2943;48.012;10.968;2022-10-18T05:14:08;6.03;;;5.43;;
5833;SDS011;2943;48.012;10.968;2022-10-18T05:16:35;9.00;;;6.50;;
5833;SDS011;2943;48.012;10.968;2022-10-18T05:19:02;9.33;;;6.40;;
5833;SDS011;2943;48.012;10.968;2022-10-18T05:21:29;7.20;;;5.40;;
5833;SDS011;2943;48.012;10.968;2022-10-18T05:23:58;7.90;;;6.33;;
5833;SDS011;2943;48.012;10.968;2022-10-18T05:26:25;9.90;;;6.30;;
5833;SDS011;2943;48.012;10.968;2022-10-18T05:28:52;12.43;;;7.07;;
5833;SDS011;2943;48.012;10.968;2022-10-18T05:31:19;9.17;;;6.33;;
5833;SDS011;2943;48.012;10.968;2022-10-18T05:33:45;10.37;;;6.53;;
5833;SDS011;2943;48.012;10.968;2022-10-18T05:36:12;8.17;;;5.97;;
5833;SDS011;2943;48.012;10.968;2022-10-18T05:38:39;6.40;;;5.67;;
5833;SDS011;2943;48.012;10.968;2022-10-18T05:41:08;9.90;;;6.10;;
5833;SDS011;2943;48.012;10.968;2022-10-18T05:43:35;16.53;;;6.30;;
5833;SDS011;2943;48.012;10.968;2022-10-18T05:46:03;6.67;;;5.97;;
5833;SDS011;2943;48.012;10.968;2022-10-18T05:48:31;9.70;;;6.20;;
5833;SDS011;2943;48.012;10.968;2022-10-18T05:50:58;11.00;;;7.10;;
5833;SDS011;2943;48.012;10.968;2022-10-18T05:53:25;15.67;;;8.97;;
5833;SDS011;2943;48.012;10.968;2022-10-18T05:55:52;12.80;;;8.20;;
5833;SDS011;2943;48.012;10.968;2022-10-18T05:58:21;11.70;;;7.27;;
5833;SDS011;2943;48.012;10.968;2022-10-18T06:00:47;10.60;;;7.33;;
5833;SDS011;2943;48.012;10.968;2022-10-18T06:03:16;10.00;;;7.17;;
5833;SDS011;2943;48.012;10.968;2022-10-18T06:05:43;9.73;;;6.30;;
5833;SDS011;2943;48.012;10.968;2022-10-18T06:08:10;12.83;;;5.87;;
5833;SDS011;2943;48.012;10.968;2022-10-18T06:10:37;8.13;;;5.67;;
5833;SDS011;2943;48.012;10.968;2022-10-18T06:13:04;11.40;;;6.10;;
5833;SDS011;2943;48.012;10.968;2022-10-18T06:15:32;7.17;;;5.40;;
5833;SDS011;2943;48.012;10.968;2022-10-18T06:17:59;8.60;;;5.40;;
5833;SDS011;2943;48.012;10.968;2022-10-18T06:20:26;7.53;;;5.77;;
5833;SDS011;2943;48.012;10.968;2022-10-18T06:22:53;9.33;;;6.00;;
5833;SDS011;2943;48.012;10.968;2022-10-18T06:25:20;7.33;;;4.73;;
5833;SDS011;2943;48.012;10.968;2022-10-18T06:27:46;11.57;;;5.70;;
5833;SDS011;2943;48.012;10.968;2022-10-18T06:30:13;8.97;;;5.37;;
5833;SDS011;2943;48.012;10.968;2022-10-18T06:32:42;9.00;;;5.73;;
5833;SDS011;2943;48.012;10.968;2022-10-18T06:35:08;6.17;;;5.13;;
5833;SDS011;2943;48.012;10.968;2022-10-18T06:37:35;6.90;;;5.50;;
5833;SDS011;2943;48.012;10.968;2022-10-18T06:40:02;12.30;;;5.47;;
5833;SDS011;2943;48.012;10.968;2022-10-18T06:42:30;9.73;;;6.20;;
5833;SDS011;2943;48.012;10.968;2022-10-18T06:44:57;8.17;;;5.07;;
5833;SDS011;2943;48.012;10.968;2022-10-18T06:47:25;15.63;;;6.37;;
5833;SDS011;2943;48.012;10.968;2022-10-18T06:49:53;6.27;;;5.17;;
5833;SDS011;2943;48.012;10.968;2022-10-18T06:52:20;5.97;;;4.50;;
5833;SDS011;2943;48.012;10.968;2022-10-18T06:54:49;12.43;;;6.07;;
5833;SDS011;2943;48.012;10.968;2022-10-18T06:57:16;7.73;;;4.93;;
5833;SDS011;2943;48.012;10.968;2022-10-18T06:59:45;8.67;;;5.67;;
5833;SDS011;2943;48.012;10.968;2022-10-18T07:02:13;6.30;;;5.00;;
5833;SDS011;2943;48.012;10.968;2022-10-18T07:04:41;8.50;;;5.77;;
5833;SDS011;2943;48.012;10.968;2022-10-18T07:07:10;7.33;;;4.90;;
5833;SDS011;2943;48.012;10.968;2022-10-18T07:09:37;9.30;;;6.30;;
5833;SDS011;2943;48.012;10.968;2022-10-18T07:12:04;12.40;;;5.77;;
5833;SDS011;2943;48.012;10.968;2022-10-18T07:14:31;12.53;;;5.33;;
5833;SDS011;2943;48.012;10.968;2022-10-18T07:16:58;10.33;;;5.13;;
5833;SDS011;2943;48.012;10.968;2022-10-18T07:19:25;8.23;;;5.80;;
5833;SDS011;2943;48.012;10.968;2022-10-18T07:21:52;7.07;;;6.20;;
5833;SDS011;2943;48.012;10.968;2022-10-18T07:24:20;11.80;;;7.00;;
5833;SDS011;2943;48.012;10.968;2022-10-18T07:26:47;13.90;;;7.30;;
5833;SDS011;2943;48.012;10.968;2022-10-18T07:29:14;8.43;;;5.20;;
5833;SDS011;2943;48.012;10.968;2022-10-18T07:31:41;8.53;;;5.10;;
5833;SDS011;2943;48.012;10.968;2022-10-18T07:34:10;7.37;;;5.30;;
5833;SDS011;2943;48.012;10.968;2022-10-18T07:36:38;10.60;;;4.97;;
5833;SDS011;2943;48.012;10.968;2022-10-18T07:39:05;7.40;;;5.50;;
5833;SDS011;2943;48.012;10.968;2022-10-18T07:41:34;15.27;;;6.60;;
5833;SDS011;2943;48.012;10.968;2022-10-18T07:44:02;10.13;;;5.90;;
5833;SDS011;2943;48.012;10.968;2022-10-18T07:46:29;9.97;;;5.53;;
5833;SDS011;2943;48.012;10.968;2022-10-18T07:48:57;9.03;;;5.57;;
5833;SDS011;2943;48.012;10.968;2022-10-18T07:51:24;7.23;;;5.50;;
5833;SDS011;2943;48.012;10.968;2022-10-18T07:53:52;8.07;;;5.80;;
5833;SDS011;2943;48.012;10.968;2022-10-18T07:56:19;9.83;;;6.30;;
5833;SDS011;2943;48.012;10.968;2022-10-18T07:58:48;9.27;;;6.07;;
5833;SDS011;2943;48.012;10.968;2022-10-18T08:01:16;7.60;;;5.33;;
5833;SDS011;2943;48.012;10.968;2022-10-18T08:03:44;6.40;;;4.90;;
5833;SDS011;2943;48.012;10.968;2022-10-18T08:06:12;19.33;;;5.10;;
5833;SDS011;2943;48.012;10.968;2022-10-18T08:08:40;8.40;;;5.13;;
5833;SDS011;2943;48.012;10.968;2022-10-18T08:11:08;7.77;;;4.80;;
5833;SDS011;2943;48.012;10.968;2022-10-18T08:13:38;7.93;;;5.23;;
5833;SDS011;2943;48.012;10.968;2022-10-18T08:16:07;9.87;;;5.00;;
5833;SDS011;2943;48.012;10.968;2022-10-18T08:18:36;9.20;;;4.80;;
5833;SDS011;2943;48.012;10.968;2022-10-18T08:21:04;18.47;;;5.33;;
5833;SDS011;2943;48.012;10.968;2022-10-18T08:23:32;20.47;;;5.23;;
5833;SDS011;2943;48.012;10.968;2022-10-18T08:26:00;7.00;;;5.13;;
5833;SDS011;2943;48.012;10.968;2022-10-18T08:28:27;5.87;;;4.57;;
5833;SDS011;2943;48.012;10.968;2022-10-18T08:30:54;7.43;;;4.80;;
5833;SDS011;2943;48.012;10.968;2022-10-18T08:33:22;12.83;;;5.63;;
5833;SDS011;2943;48.012;10.968;2022-10-18T08:35:55;4.73;;;4.13;;
5833;SDS011;2943;48.012;10.968;2022-10-18T08:38:22;5.60;;;4.40;;
5833;SDS011;2943;48.012;10.968;2022-10-18T08:40:50;9.63;;;4.47;;
5833;SDS011;2943;48.012;10.968;2022-10-18T08:43:21;5.40;;;3.93;;
5833;SDS011;2943;48.012;10.968;2022-10-18T08:45:54;4.33;;;3.60;;
5833;SDS011;2943;48.012;10.968;2022-10-18T08:48:24;10.60;;;4.73;;
5833;SDS011;2943;48.012;10.968;2022-10-18T08:50:57;5.70;;;4.53;;
5833;SDS011;2943;48.012;10.968;2022-10-18T08:53:26;10.30;;;4.17;;
5833;SDS011;2943;48.012;10.968;2022-10-18T08:55:58;7.20;;;4.47;;
5833;SDS011;2943;48.012;10.968;2022-10-18T08:58:30;5.77;;;4.33;;
5833;SDS011;2943;48.012;10.968;2022-10-18T09:01:00;6.07;;;4.27;;
5833;SDS011;2943;48.012;10.968;2022-10-18T09:03:43;5.10;;;4.17;;
5833;SDS011;2943;48.012;10.968;2022-10-18T09:06:23;7.63;;;4.23;;
5833;SDS011;2943;48.012;10.968;2022-10-18T09:11:52;5.03;;;3.87;;
5833;SDS011;2943;48.012;10.968;2022-10-18T09:14:32;6.80;;;5.00;;
5833;SDS011;2943;48.012;10.968;2022-10-18T09:17:16;5.70;;;4.40;;
5833;SDS011;2943;48.012;10.968;2022-10-18T09:19:56;10.93;;;4.47;;
5833;SDS011;2943;48.012;10.968;2022-10-18T09:22:34;7.70;;;4.40;;
5833;SDS011;2943;48.012;10.968;2022-10-18T09:25:14;5.50;;;4.37;;
5833;SDS011;2943;48.012;10.968;2022-10-18T09:27:46;11.10;;;4.90;;
5833;SDS011;2943;48.012;10.968;2022-10-18T09:30:21;10.07;;;5.53;;
5833;SDS011;2943;48.012;10.968;2022-10-18T09:33:00;5.47;;;4.50;;
5833;SDS011;2943;48.012;10.968;2022-10-18T09:35:36;7.97;;;4.80;;
5833;SDS011;2943;48.012;10.968;2022-10-18T09:38:09;9.40;;;5.30;;
5833;SDS011;2943;48.012;10.968;2022-10-18T09:40:43;11.80;;;5.33;;
5833;SDS011;2943;48.012;10.968;2022-10-18T09:43:16;16.77;;;5.07;;
5833;SDS011;2943;48.012;10.968;2022-10-18T09:45:46;5.20;;;4.17;;
5833;SDS011;2943;48.012;10.968;2022-10-18T09:48:15;6.30;;;4.57;;
5833;SDS011;2943;48.012;10.968;2022-10-18T09:50:49;30.90;;;5.50;;
5833;SDS011;2943;48.012;10.968;2022-10-18T09:53:24;5.07;;;4.37;;
5833;SDS011;2943;48.012;10.968;2022-10-18T09:55:59;8.93;;;4.60;;
5833;SDS011;2943;48.012;10.968;2022-10-18T09:58:35;9.30;;;4.30;;
5833;SDS011;2943;48.012;10.968;2022-10-18T10:01:08;7.07;;;4.63;;
5833;SDS011;2943;48.012;10.968;2022-10-18T10:03:38;10.00;;;4.60;;
5833;SDS011;2943;48.012;10.968;2022-10-18T10:08:53;10.20;;;5.00;;
5833;SDS011;2943;48.012;10.968;2022-10-18T10:11:25;11.57;;;4.67;;
5833;SDS011;2943;48.012;10.968;2022-10-18T10:13:57;7.67;;;4.67;;
5833;SDS011;2943;48.012;10.968;2022-10-18T10:16:33;7.70;;;4.57;;
5833;SDS011;2943;48.012;10.968;2022-10-18T10:19:14;5.60;;;4.50;;
5833;SDS011;2943;48.012;10.968;2022-10-18T10:21:44;12.13;;;5.47;;
5833;SDS011;2943;48.012;10.968;2022-10-18T10:24:24;6.77;;;4.80;;
5833;SDS011;2943;48.012;10.968;2022-10-18T10:26:59;19.33;;;4.70;;
5833;SDS011;2943;48.012;10.968;2022-10-18T10:29:47;11.50;;;4.10;;
5833;SDS011;2943;48.012;10.968;2022-10-18T10:32:18;6.20;;;4.63;;
5833;SDS011;2943;48.012;10.968;2022-10-18T10:34:47;11.87;;;5.30;;
5833;SDS011;2943;48.012;10.968;2022-10-18T10:37:27;5.13;;;4.63;;
5833;SDS011;2943;48.012;10.968;2022-10-18T10:40:03;7.80;;;4.70;;
5833;SDS011;2943;48.012;10.968;2022-10-18T10:42:47;5.20;;;4.70;;
5833;SDS011;2943;48.012;10.968;2022-10-18T10:45:19;11.33;;;5.07;;
5833;SDS011;2943;48.012;10.968;2022-10-18T10:47:48;7.70;;;4.50;;
5833;SDS011;2943;48.012;10.968;2022-10-18T10:50:22;4.30;;;3.83;;
5833;SDS011;2943;48.012;10.968;2022-10-18T10:52:51;11.33;;;4.53;;
5833;SDS011;2943;48.012;10.968;2022-10-18T10:55:21;17.77;;;4.90;;
5833;SDS011;2943;48.012;10.968;2022-10-18T10:57:52;4.37;;;3.83;;
5833;SDS011;2943;48.012;10.968;2022-10-18T11:03:10;8.80;;;4.70;;
5833;SDS011;2943;48.012;10.968;2022-10-18T11:05:42;5.03;;;3.90;;
5833;SDS011;2943;48.012;10.968;2022-10-18T11:08:12;8.00;;;4.77;;
5833;SDS011;2943;48.012;10.968;2022-10-18T11:10:48;6.50;;;4.40;;
5833;SDS011;2943;48.012;10.968;2022-10-18T11:13:23;7.77;;;4.57;;
5833;SDS011;2943;48.012;10.968;2022-10-18T11:15:56;7.13;;;4.27;;
5833;SDS011;2943;48.012;10.968;2022-10-18T11:18:27;7.20;;;4.20;;
5833;SDS011;2943;48.012;10.968;2022-10-18T11:20:59;15.70;;;4.30;;
5833;SDS011;2943;48.012;10.968;2022-10-18T11:23:33;4.43;;;4.03;;
5833;SDS011;2943;48.012;10.968;2022-10-18T11:28:58;7.10;;;3.90;;
5833;SDS011;2943;48.012;10.968;2022-10-18T11:31:44;7.60;;;3.40;;
5833;SDS011;2943;48.012;10.968;2022-10-18T11:34:21;6.10;;;3.80;;
5833;SDS011;2943;48.012;10.968;2022-10-18T11:37:02;5.87;;;3.80;;
5833;SDS011;2943;48.012;10.968;2022-10-18T11:39:40;9.73;;;4.60;;
5833;SDS011;2943;48.012;10.968;2022-10-18T11:42:17;7.40;;;4.20;;
5833;SDS011;2943;48.012;10.968;2022-10-18T11:44:53;7.13;;;3.90;;
5833;SDS011;2943;48.012;10.968;2022-10-18T11:47:32;13.07;;;4.20;;
5833;SDS011;2943;48.012;10.968;2022-10-18T11:50:07;6.23;;;3.53;;
5833;SDS011;2943;48.012;10.968;2022-10-18T11:52:44;7.23;;;3.67;;
5833;SDS011;2943;48.012;10.968;2022-10-18T11:55:24;8.43;;;3.53;;
5833;SDS011;2943;48.012;10.968;2022-10-18T11:58:01;5.13;;;3.77;;
5833;SDS011;2943;48.012;10.968;2022-10-18T12:00:42;14.03;;;3.93;;
5833;SDS011;2943;48.012;10.968;2022-10-18T12:03:19;14.37;;;3.80;;
5833;SDS011;2943;48.012;10.968;2022-10-18T12:05:54;10.93;;;3.80;;
5833;SDS011;2943;48.012;10.968;2022-10-18T12:08:25;7.00;;;4.10;;
5833;SDS011;2943;48.012;10.968;2022-10-18T12:10:56;9.60;;;3.70;;
5833;SDS011;2943;48.012;10.968;2022-10-18T12:13:28;7.00;;;3.50;;
5833;SDS011;2943;48.012;10.968;2022-10-18T12:16:00;22.80;;;4.40;;
5833;SDS011;2943;48.012;10.968;2022-10-18T12:18:29;3.90;;;3.40;;
5833;SDS011;2943;48.012;10.968;2022-10-18T12:20:58;23.37;;;4.10;;
5833;SDS011;2943;48.012;10.968;2022-10-18T12:23:29;7.03;;;3.87;;
5833;SDS011;2943;48.012;10.968;2022-10-18T12:26:04;8.03;;;3.57;;
5833;SDS011;2943;48.012;10.968;2022-10-18T12:28:36;10.47;;;3.47;;
5833;SDS011;2943;48.012;10.968;2022-10-18T12:31:14;16.03;;;4.20;;
5833;SDS011;2943;48.012;10.968;2022-10-18T12:33:48;11.00;;;3.80;;
5833;SDS011;2943;48.012;10.968;2022-10-18T12:36:21;13.10;;;3.30;;
5833;SDS011;2943;48.012;10.968;2022-10-18T12:39:09;8.53;;;3.80;;
5833;SDS011;2943;48.012;10.968;2022-10-18T12:41:43;12.00;;;3.70;;
5833;SDS011;2943;48.012;10.968;2022-10-18T12:44:17;6.57;;;4.00;;
5833;SDS011;2943;48.012;10.968;2022-10-18T12:46:47;5.93;;;3.63;;
5833;SDS011;2943;48.012;10.968;2022-10-18T12:49:17;10.23;;;3.70;;
5833;SDS011;2943;48.012;10.968;2022-10-18T12:51:49;8.13;;;3.70;;
5833;SDS011;2943;48.012;10.968;2022-10-18T12:54:19;16.43;;;4.00;;
5833;SDS011;2943;48.012;10.968;2022-10-18T12:56:51;6.00;;;3.43;;
5833;SDS011;2943;48.012;10.968;2022-10-18T13:02:31;7.03;;;3.60;;
5833;SDS011;2943;48.012;10.968;2022-10-18T13:04:58;10.77;;;3.80;;
5833;SDS011;2943;48.012;10.968;2022-10-18T13:07:33;7.80;;;4.23;;
5833;SDS011;2943;48.012;10.968;2022-10-18T13:16:02;11.17;;;4.17;;
5833;SDS011;2943;48.012;10.968;2022-10-18T13:18:38;9.23;;;3.83;;
5833;SDS011;2943;48.012;10.968;2022-10-18T13:21:22;12.50;;;3.13;;
5833;SDS011;2943;48.012;10.968;2022-10-18T13:24:07;14.23;;;4.90;;
5833;SDS011;2943;48.012;10.968;2022-10-18T13:26:50;7.70;;;3.67;;
5833;SDS011;2943;48.012;10.968;2022-10-18T13:29:45;8.70;;;3.17;;
5833;SDS011;2943;48.012;10.968;2022-10-18T13:32:29;6.67;;;3.40;;
5833;SDS011;2943;48.012;10.968;2022-10-18T13:35:00;11.73;;;3.63;;
5833;SDS011;2943;48.012;10.968;2022-10-18T13:37:27;8.87;;;3.60;;
5833;SDS011;2943;48.012;10.968;2022-10-18T13:42:40;13.00;;;4.00;;
5833;SDS011;2943;48.012;10.968;2022-10-18T13:51:18;12.50;;;4.13;;
5833;SDS011;2943;48.012;10.968;2022-10-18T13:53:59;21.17;;;5.13;;
5833;SDS011;2943;48.012;10.968;2022-10-18T13:56:49;8.00;;;4.17;;
5833;SDS011;2943;48.012;10.968;2022-10-18T14:05:17;7.20;;;4.00;;
5833;SDS011;2943;48.012;10.968;2022-10-18T14:07:55;10.07;;;3.90;;
5833;SDS011;2943;48.012;10.968;2022-10-18T14:10:27;6.43;;;4.23;;
5833;SDS011;2943;48.012;10.968;2022-10-18T14:13:03;8.60;;;3.50;;
5833;SDS011;2943;48.012;10.968;2022-10-18T14:15:40;10.90;;;3.70;;
5833;SDS011;2943;48.012;10.968;2022-10-18T14:18:12;8.43;;;4.00;;
5833;SDS011;2943;48.012;10.968;2022-10-18T14:20:42;23.20;;;4.30;;
5833;SDS011;2943;48.012;10.968;2022-10-18T14:23:14;9.10;;;3.57;;
5833;SDS011;2943;48.012;10.968;2022-10-18T14:25:44;8.53;;;3.20;;
5833;SDS011;2943;48.012;10.968;2022-10-18T14:28:12;6.03;;;3.53;;
5833;SDS011;2943;48.012;10.968;2022-10-18T14:30:50;8.13;;;3.80;;
5833;SDS011;2943;48.012;10.968;2022-10-18T14:33:31;7.80;;;3.13;;
5833;SDS011;2943;48.012;10.968;2022-10-18T14:36:01;14.10;;;4.47;;
5833;SDS011;2943;48.012;10.968;2022-10-18T14:38:33;8.10;;;3.57;;
5833;SDS011;2943;48.012;10.968;2022-10-18T14:41:05;6.50;;;3.80;;
5833;SDS011;2943;48.012;10.968;2022-10-18T14:43:38;9.73;;;4.50;;
5833;SDS011;2943;48.012;10.968;2022-10-18T14:46:09;5.97;;;3.80;;
5833;SDS011;2943;48.012;10.968;2022-10-18T14:48:41;8.43;;;2.93;;
5833;SDS011;2943;48.012;10.968;2022-10-18T14:51:17;12.93;;;3.80;;
5833;SDS011;2943;48.012;10.968;2022-10-18T14:53:44;16.50;;;4.37;;
5833;SDS011;2943;48.012;10.968;2022-10-18T14:56:18;8.93;;;4.00;;
5833;SDS011;2943;48.012;10.968;2022-10-18T14:58:49;14.30;;;3.40;;
5833;SDS011;2943;48.012;10.968;2022-10-18T15:01:18;16.90;;;3.30;;
5833;SDS011;2943;48.012;10.968;2022-10-18T15:03:48;7.37;;;3.77;;
5833;SDS011;2943;48.012;10.968;2022-10-18T15:06:15;11.77;;;3.80;;
5833;SDS011;2943;48.012;10.968;2022-10-18T15:08:44;12.23;;;5.00;;
5833;SDS011;2943;48.012;10.968;2022-10-18T15:11:14;12.60;;;5.10;;
5833;SDS011;2943;48.012;10.968;2022-10-18T15:13:44;17.13;;;4.80;;
5833;SDS011;2943;48.012;10.968;2022-10-18T15:16:14;18.27;;;4.60;;
5833;SDS011;2943;48.012;10.968;2022-10-18T15:18:43;12.23;;;4.10;;
5833;SDS011;2943;48.012;10.968;2022-10-18T15:21:26;13.33;;;4.60;;
5833;SDS011;2943;48.012;10.968;2022-10-18T15:23:53;12.47;;;4.30;;
5833;SDS011;2943;48.012;10.968;2022-10-18T15:26:21;4.90;;;3.57;;
5833;SDS011;2943;48.012;10.968;2022-10-18T15:28:53;13.47;;;4.10;;
5833;SDS011;2943;48.012;10.968;2022-10-18T15:31:24;31.77;;;5.00;;
5833;SDS011;2943;48.012;10.968;2022-10-18T15:33:53;24.23;;;4.50;;
5833;SDS011;2943;48.012;10.968;2022-10-18T15:36:34;6.50;;;3.50;;
5833;SDS011;2943;48.012;10.968;2022-10-18T15:39:12;4.57;;;4.00;;
5833;SDS011;2943;48.012;10.968;2022-10-18T15:41:45;7.37;;;3.73;;
5833;SDS011;2943;48.012;10.968;2022-10-18T15:44:18;12.80;;;4.10;;
5833;SDS011;2943;48.012;10.968;2022-10-18T15:46:51;11.23;;;4.13;;
5833;SDS011;2943;48.012;10.968;2022-10-18T15:58:18;9.43;;;4.40;;
5833;SDS011;2943;48.012;10.968;2022-10-18T16:00:47;10.60;;;4.13;;
5833;SDS011;2943;48.012;10.968;2022-10-18T16:03:16;9.17;;;4.20;;
5833;SDS011;2943;48.012;10.968;2022-10-18T16:05:45;11.10;;;4.80;;